sensor_id;sensor_type;location;lat;lon;timestamp;P1;durP1;ratioP1;P2;durP2;ratioP2
37895;SDS011;23733;53.254;10.430;2023-07-28T00:00:20;1.50;;;1.40;;
37895;SDS011;23733;53.254;10.430;2023-07-28T00:02:46;1.40;;;1.30;;
37895;SDS011;23733;53.254;10.430;2023-07-28T00:05:12;1.20;;;1.10;;
37895;SDS011;23733;53.254;10.430;2023-07-28T00:07:39;1.23;;;1.13;;
37895;SDS011;23733;53.254;10.430;2023-07-28T00:10:05;2.10;;;1.60;;
37895;SDS011;23733;53.254;10.430;2023-07-28T00:12:31;1.60;;;1.50;;
37895;SDS011;23733;53.254;10.430;2023-07-28T00:14:58;1.30;;;1.20;;
37895;SDS011;23733;53.254;10.430;2023-07-28T00:17:25;1.60;;;1.40;;
37895;SDS011;23733;53.254;10.430;2023-07-28T00:19:51;1.63;;;1.53;;
37895;SDS011;23733;53.254;10.430;2023-07-28T00:22:18;2.03;;;1.70;;
37895;SDS011;23733;53.254;10.430;2023-07-28T00:24:44;2.00;;;1.80;;
37895;SDS011;23733;53.254;10.430;2023-07-28T00:27:10;2.30;;;2.00;;
37895;SDS011;23733;53.254;10.430;2023-07-28T00:29:40;2.90;;;2.10;;
37895;SDS011;23733;53.254;10.430;2023-07-28T00:32:07;2.10;;;1.90;;
37895;SDS011;23733;53.254;10.430;2023-07-28T00:34:33;2.17;;;1.90;;
37895;SDS011;23733;53.254;10.430;2023-07-28T00:36:59;2.60;;;1.67;;
37895;SDS011;23733;53.254;10.430;2023-07-28T00:39:25;2.30;;;1.40;;
37895;SDS011;23733;53.254;10.430;2023-07-28T00:41:51;1.60;;;1.47;;
37895;SDS011;23733;53.254;10.430;2023-07-28T00:44:17;1.70;;;1.40;;
37895;SDS011;23733;53.254;10.430;2023-07-28T00:46:45;1.40;;;1.30;;
37895;SDS011;23733;53.254;10.430;2023-07-28T00:49:11;1.43;;;1.30;;
37895;SDS011;23733;53.254;10.430;2023-07-28T00:51:39;1.40;;;1.30;;
37895;SDS011;23733;53.254;10.430;2023-07-28T00:54:06;1.43;;;1.33;;
37895;SDS011;23733;53.254;10.430;2023-07-28T00:56:32;1.40;;;1.30;;
37895;SDS011;23733;53.254;10.430;2023-07-28T00:58:58;2.00;;;1.53;;
37895;SDS011;23733;53.254;10.430;2023-07-28T01:01:25;1.60;;;1.33;;
37895;SDS011;23733;53.254;10.430;2023-07-28T01:03:52;2.13;;;1.60;;
37895;SDS011;23733;53.254;10.430;2023-07-28T01:11:17;1.40;;;1.20;;
37895;SDS011;23733;53.254;10.430;2023-07-28T01:13:45;1.60;;;1.37;;
37895;SDS011;23733;53.254;10.430;2023-07-28T01:16:12;2.00;;;1.40;;
37895;SDS011;23733;53.254;10.430;2023-07-28T01:18:38;2.13;;;1.43;;
37895;SDS011;23733;53.254;10.430;2023-07-28T01:21:06;2.40;;;1.40;;
37895;SDS011;23733;53.254;10.430;2023-07-28T01:23:40;1.57;;;1.20;;
37895;SDS011;23733;53.254;10.430;2023-07-28T01:26:08;1.70;;;1.27;;
37895;SDS011;23733;53.254;10.430;2023-07-28T01:28:35;1.50;;;1.30;;
37895;SDS011;23733;53.254;10.430;2023-07-28T01:31:02;1.63;;;1.27;;
37895;SDS011;23733;53.254;10.430;2023-07-28T01:33:29;1.10;;;1.00;;
37895;SDS011;23733;53.254;10.430;2023-07-28T01:35:55;3.03;;;1.20;;
37895;SDS011;23733;53.254;10.430;2023-07-28T01:38:21;1.20;;;1.10;;
37895;SDS011;23733;53.254;10.430;2023-07-28T01:40:48;1.47;;;1.20;;
37895;SDS011;23733;53.254;10.430;2023-07-28T01:43:14;1.33;;;1.20;;
37895;SDS011;23733;53.254;10.430;2023-07-28T01:45:40;1.30;;;1.20;;
37895;SDS011;23733;53.254;10.430;2023-07-28T01:48:06;1.20;;;1.10;;
37895;SDS011;23733;53.254;10.430;2023-07-28T01:50:35;1.50;;;1.00;;
37895;SDS011;23733;53.254;10.430;2023-07-28T01:53:01;1.07;;;0.93;;
37895;SDS011;23733;53.254;10.430;2023-07-28T01:55:27;1.30;;;1.20;;
37895;SDS011;23733;53.254;10.430;2023-07-28T01:57:56;1.30;;;1.00;;
37895;SDS011;23733;53.254;10.430;2023-07-28T02:00:22;1.10;;;1.00;;
37895;SDS011;23733;53.254;10.430;2023-07-28T02:02:49;1.30;;;1.10;;
37895;SDS011;23733;53.254;10.430;2023-07-28T02:05:15;1.00;;;1.00;;
37895;SDS011;23733;53.254;10.430;2023-07-28T02:07:42;2.37;;;1.30;;
37895;SDS011;23733;53.254;10.430;2023-07-28T02:10:08;1.10;;;1.00;;
37895;SDS011;23733;53.254;10.430;2023-07-28T02:12:35;1.67;;;1.10;;
37895;SDS011;23733;53.254;10.430;2023-07-28T02:15:02;2.30;;;1.20;;
37895;SDS011;23733;53.254;10.430;2023-07-28T02:17:29;3.00;;;1.30;;
37895;SDS011;23733;53.254;10.430;2023-07-28T02:19:55;2.20;;;1.00;;
37895;SDS011;23733;53.254;10.430;2023-07-28T02:22:21;2.93;;;1.03;;
37895;SDS011;23733;53.254;10.430;2023-07-28T02:24:48;3.80;;;1.40;;
37895;SDS011;23733;53.254;10.430;2023-07-28T02:27:14;1.20;;;1.10;;
37895;SDS011;23733;53.254;10.430;2023-07-28T02:29:40;2.87;;;1.50;;
37895;SDS011;23733;53.254;10.430;2023-07-28T02:32:07;1.43;;;1.23;;
37895;SDS011;23733;53.254;10.430;2023-07-28T02:34:34;1.40;;;1.20;;
37895;SDS011;23733;53.254;10.430;2023-07-28T02:37:00;1.10;;;1.00;;
37895;SDS011;23733;53.254;10.430;2023-07-28T02:39:26;2.00;;;1.00;;
37895;SDS011;23733;53.254;10.430;2023-07-28T02:41:53;2.07;;;1.30;;
37895;SDS011;23733;53.254;10.430;2023-07-28T02:44:20;2.83;;;1.03;;
37895;SDS011;23733;53.254;10.430;2023-07-28T02:46:46;1.87;;;1.10;;
37895;SDS011;23733;53.254;10.430;2023-07-28T02:49:13;1.10;;;0.90;;
37895;SDS011;23733;53.254;10.430;2023-07-28T02:51:39;2.10;;;1.10;;
37895;SDS011;23733;53.254;10.430;2023-07-28T02:54:07;2.00;;;1.40;;
37895;SDS011;23733;53.254;10.430;2023-07-28T02:56:33;1.10;;;0.93;;
37895;SDS011;23733;53.254;10.430;2023-07-28T02:59:03;1.87;;;0.80;;
37895;SDS011;23733;53.254;10.430;2023-07-28T03:01:30;1.00;;;0.93;;
37895;SDS011;23733;53.254;10.430;2023-07-28T03:04:00;1.00;;;0.80;;
37895;SDS011;23733;53.254;10.430;2023-07-28T03:06:31;1.37;;;0.80;;
37895;SDS011;23733;53.254;10.430;2023-07-28T03:09:00;0.97;;;0.87;;
37895;SDS011;23733;53.254;10.430;2023-07-28T03:11:26;1.03;;;0.80;;
37895;SDS011;23733;53.254;10.430;2023-07-28T03:13:52;0.80;;;0.70;;
37895;SDS011;23733;53.254;10.430;2023-07-28T03:16:19;0.90;;;0.90;;
37895;SDS011;23733;53.254;10.430;2023-07-28T03:18:45;0.83;;;0.83;;
37895;SDS011;23733;53.254;10.430;2023-07-28T03:21:11;0.70;;;0.70;;
37895;SDS011;23733;53.254;10.430;2023-07-28T03:23:38;0.80;;;0.80;;
37895;SDS011;23733;53.254;10.430;2023-07-28T03:26:04;2.20;;;0.90;;
37895;SDS011;23733;53.254;10.430;2023-07-28T03:28:31;0.80;;;0.80;;
37895;SDS011;23733;53.254;10.430;2023-07-28T03:30:57;1.60;;;1.20;;
37895;SDS011;23733;53.254;10.430;2023-07-28T03:33:23;2.23;;;0.80;;
37895;SDS011;23733;53.254;10.430;2023-07-28T03:35:49;1.83;;;0.80;;
37895;SDS011;23733;53.254;10.430;2023-07-28T03:38:16;1.60;;;1.10;;
37895;SDS011;23733;53.254;10.430;2023-07-28T03:40:43;3.13;;;1.10;;
37895;SDS011;23733;53.254;10.430;2023-07-28T03:43:11;0.87;;;0.87;;
37895;SDS011;23733;53.254;10.430;2023-07-28T03:45:37;1.30;;;1.10;;
37895;SDS011;23733;53.254;10.430;2023-07-28T03:48:03;1.63;;;1.30;;
37895;SDS011;23733;53.254;10.430;2023-07-28T03:50:30;1.30;;;1.00;;
37895;SDS011;23733;53.254;10.430;2023-07-28T03:52:56;1.53;;;1.23;;
37895;SDS011;23733;53.254;10.430;2023-07-28T03:55:23;1.23;;;1.13;;
37895;SDS011;23733;53.254;10.430;2023-07-28T03:57:49;3.53;;;1.30;;
37895;SDS011;23733;53.254;10.430;2023-07-28T04:00:15;4.57;;;1.50;;
37895;SDS011;23733;53.254;10.430;2023-07-28T04:02:42;1.20;;;1.10;;
37895;SDS011;23733;53.254;10.430;2023-07-28T04:05:08;1.53;;;1.20;;
37895;SDS011;23733;53.254;10.430;2023-07-28T04:07:35;1.97;;;1.10;;
37895;SDS011;23733;53.254;10.430;2023-07-28T04:10:01;1.57;;;1.30;;
37895;SDS011;23733;53.254;10.430;2023-07-28T04:12:27;1.30;;;1.00;;
37895;SDS011;23733;53.254;10.430;2023-07-28T04:14:54;1.70;;;1.27;;
37895;SDS011;23733;53.254;10.430;2023-07-28T04:17:22;2.23;;;1.30;;
37895;SDS011;23733;53.254;10.430;2023-07-28T04:19:48;3.10;;;1.30;;
37895;SDS011;23733;53.254;10.430;2023-07-28T04:22:14;3.07;;;1.40;;
37895;SDS011;23733;53.254;10.430;2023-07-28T04:24:44;3.60;;;1.50;;
37895;SDS011;23733;53.254;10.430;2023-07-28T04:27:10;1.60;;;1.37;;
37895;SDS011;23733;53.254;10.430;2023-07-28T04:29:36;2.73;;;1.80;;
37895;SDS011;23733;53.254;10.430;2023-07-28T04:32:02;1.63;;;1.50;;
37895;SDS011;23733;53.254;10.430;2023-07-28T04:34:28;4.17;;;1.90;;
37895;SDS011;23733;53.254;10.430;2023-07-28T04:36:54;4.03;;;1.93;;
37895;SDS011;23733;53.254;10.430;2023-07-28T04:39:20;2.33;;;1.50;;
37895;SDS011;23733;53.254;10.430;2023-07-28T04:41:46;3.00;;;1.30;;
37895;SDS011;23733;53.254;10.430;2023-07-28T04:44:12;1.40;;;1.30;;
37895;SDS011;23733;53.254;10.430;2023-07-28T04:46:38;1.67;;;1.30;;
37895;SDS011;23733;53.254;10.430;2023-07-28T04:49:04;1.60;;;1.50;;
37895;SDS011;23733;53.254;10.430;2023-07-28T04:51:30;2.03;;;1.80;;
37895;SDS011;23733;53.254;10.430;2023-07-28T04:53:56;2.00;;;1.80;;
37895;SDS011;23733;53.254;10.430;2023-07-28T04:56:22;1.80;;;1.53;;
37895;SDS011;23733;53.254;10.430;2023-07-28T04:58:49;2.60;;;2.20;;
37895;SDS011;23733;53.254;10.430;2023-07-28T05:01:15;2.87;;;2.50;;
37895;SDS011;23733;53.254;10.430;2023-07-28T05:03:44;2.40;;;2.10;;
37895;SDS011;23733;53.254;10.430;2023-07-28T05:06:10;2.40;;;2.03;;
37895;SDS011;23733;53.254;10.430;2023-07-28T05:08:36;2.30;;;2.10;;
37895;SDS011;23733;53.254;10.430;2023-07-28T05:11:02;3.30;;;2.40;;
37895;SDS011;23733;53.254;10.430;2023-07-28T05:13:29;2.10;;;1.90;;
37895;SDS011;23733;53.254;10.430;2023-07-28T05:15:55;2.40;;;1.90;;
37895;SDS011;23733;53.254;10.430;2023-07-28T05:18:21;2.87;;;1.97;;
37895;SDS011;23733;53.254;10.430;2023-07-28T05:20:48;3.53;;;2.13;;
37895;SDS011;23733;53.254;10.430;2023-07-28T05:23:14;4.93;;;2.20;;
37895;SDS011;23733;53.254;10.430;2023-07-28T05:25:40;2.40;;;2.20;;
37895;SDS011;23733;53.254;10.430;2023-07-28T05:28:06;2.90;;;2.13;;
37895;SDS011;23733;53.254;10.430;2023-07-28T05:30:33;2.33;;;2.00;;
37895;SDS011;23733;53.254;10.430;2023-07-28T05:32:59;1.70;;;1.60;;
37895;SDS011;23733;53.254;10.430;2023-07-28T05:35:26;2.13;;;1.40;;
37895;SDS011;23733;53.254;10.430;2023-07-28T05:37:52;1.50;;;1.40;;
37895;SDS011;23733;53.254;10.430;2023-07-28T05:40:20;1.30;;;1.20;;
37895;SDS011;23733;53.254;10.430;2023-07-28T05:42:46;1.67;;;1.10;;
37895;SDS011;23733;53.254;10.430;2023-07-28T05:45:12;1.27;;;1.13;;
37895;SDS011;23733;53.254;10.430;2023-07-28T05:47:38;1.03;;;0.90;;
37895;SDS011;23733;53.254;10.430;2023-07-28T05:50:05;2.77;;;1.10;;
37895;SDS011;23733;53.254;10.430;2023-07-28T05:52:31;1.47;;;0.97;;
37895;SDS011;23733;53.254;10.430;2023-07-28T05:54:57;1.20;;;1.10;;
37895;SDS011;23733;53.254;10.430;2023-07-28T05:57:24;1.70;;;1.03;;
37895;SDS011;23733;53.254;10.430;2023-07-28T05:59:50;1.00;;;1.00;;
37895;SDS011;23733;53.254;10.430;2023-07-28T06:02:16;1.37;;;1.00;;
37895;SDS011;23733;53.254;10.430;2023-07-28T06:04:43;1.73;;;0.93;;
37895;SDS011;23733;53.254;10.430;2023-07-28T06:07:09;2.17;;;1.10;;
37895;SDS011;23733;53.254;10.430;2023-07-28T06:09:35;2.17;;;1.40;;
37895;SDS011;23733;53.254;10.430;2023-07-28T06:12:03;3.67;;;1.37;;
37895;SDS011;23733;53.254;10.430;2023-07-28T06:14:29;5.10;;;1.53;;
37895;SDS011;23733;53.254;10.430;2023-07-28T06:16:55;3.67;;;1.30;;
37895;SDS011;23733;53.254;10.430;2023-07-28T06:19:21;3.17;;;1.20;;
37895;SDS011;23733;53.254;10.430;2023-07-28T06:21:52;1.03;;;0.93;;
37895;SDS011;23733;53.254;10.430;2023-07-28T06:24:18;1.80;;;0.87;;
37895;SDS011;23733;53.254;10.430;2023-07-28T06:26:44;4.70;;;1.00;;
37895;SDS011;23733;53.254;10.430;2023-07-28T06:29:10;1.93;;;1.00;;
37895;SDS011;23733;53.254;10.430;2023-07-28T06:31:36;1.30;;;0.73;;
37895;SDS011;23733;53.254;10.430;2023-07-28T06:34:02;1.90;;;0.70;;
37895;SDS011;23733;53.254;10.430;2023-07-28T06:36:28;0.73;;;0.73;;
37895;SDS011;23733;53.254;10.430;2023-07-28T06:38:54;0.83;;;0.83;;
37895;SDS011;23733;53.254;10.430;2023-07-28T06:41:21;1.00;;;0.87;;
37895;SDS011;23733;53.254;10.430;2023-07-28T06:43:47;0.80;;;0.80;;
37895;SDS011;23733;53.254;10.430;2023-07-28T06:46:17;0.60;;;0.60;;
37895;SDS011;23733;53.254;10.430;2023-07-28T06:48:43;1.20;;;1.00;;
37895;SDS011;23733;53.254;10.430;2023-07-28T06:51:09;1.53;;;0.90;;
37895;SDS011;23733;53.254;10.430;2023-07-28T06:53:35;1.10;;;1.00;;
37895;SDS011;23733;53.254;10.430;2023-07-28T06:56:01;1.10;;;0.93;;
37895;SDS011;23733;53.254;10.430;2023-07-28T06:58:27;0.87;;;0.87;;
37895;SDS011;23733;53.254;10.430;2023-07-28T07:00:53;1.07;;;0.90;;
37895;SDS011;23733;53.254;10.430;2023-07-28T07:03:21;1.07;;;0.90;;
37895;SDS011;23733;53.254;10.430;2023-07-28T07:05:49;0.93;;;0.90;;
37895;SDS011;23733;53.254;10.430;2023-07-28T07:08:16;0.93;;;0.90;;
37895;SDS011;23733;53.254;10.430;2023-07-28T07:10:52;0.90;;;0.90;;
37895;SDS011;23733;53.254;10.430;2023-07-28T07:13:18;1.00;;;0.90;;
37895;SDS011;23733;53.254;10.430;2023-07-28T07:15:44;3.10;;;1.10;;
37895;SDS011;23733;53.254;10.430;2023-07-28T07:18:11;1.20;;;0.90;;
37895;SDS011;23733;53.254;10.430;2023-07-28T07:20:37;1.07;;;0.90;;
37895;SDS011;23733;53.254;10.430;2023-07-28T07:23:04;1.30;;;1.00;;
37895;SDS011;23733;53.254;10.430;2023-07-28T07:25:30;1.47;;;1.07;;
37895;SDS011;23733;53.254;10.430;2023-07-28T07:27:56;1.57;;;1.10;;
37895;SDS011;23733;53.254;10.430;2023-07-28T07:30:22;1.30;;;1.03;;
37895;SDS011;23733;53.254;10.430;2023-07-28T07:32:48;2.73;;;1.47;;
37895;SDS011;23733;53.254;10.430;2023-07-28T07:35:14;1.10;;;1.00;;
37895;SDS011;23733;53.254;10.430;2023-07-28T07:37:40;0.90;;;0.90;;
37895;SDS011;23733;53.254;10.430;2023-07-28T07:40:06;2.30;;;1.00;;
37895;SDS011;23733;53.254;10.430;2023-07-28T07:42:43;1.10;;;1.00;;
37895;SDS011;23733;53.254;10.430;2023-07-28T07:45:11;2.70;;;1.30;;
37895;SDS011;23733;53.254;10.430;2023-07-28T07:47:38;3.13;;;1.40;;
37895;SDS011;23733;53.254;10.430;2023-07-28T07:50:06;1.43;;;1.30;;
37895;SDS011;23733;53.254;10.430;2023-07-28T07:52:34;1.70;;;1.30;;
37895;SDS011;23733;53.254;10.430;2023-07-28T07:55:01;1.63;;;1.30;;
37895;SDS011;23733;53.254;10.430;2023-07-28T07:57:28;2.30;;;1.60;;
37895;SDS011;23733;53.254;10.430;2023-07-28T07:59:54;2.03;;;1.50;;
37895;SDS011;23733;53.254;10.430;2023-07-28T08:02:24;1.50;;;1.40;;
37895;SDS011;23733;53.254;10.430;2023-07-28T08:04:51;3.37;;;1.30;;
37895;SDS011;23733;53.254;10.430;2023-07-28T08:07:21;1.33;;;1.20;;
37895;SDS011;23733;53.254;10.430;2023-07-28T08:09:49;1.60;;;1.30;;
37895;SDS011;23733;53.254;10.430;2023-07-28T08:12:15;3.53;;;1.43;;
37895;SDS011;23733;53.254;10.430;2023-07-28T08:14:42;1.90;;;1.30;;
37895;SDS011;23733;53.254;10.430;2023-07-28T08:17:09;2.40;;;1.70;;
37895;SDS011;23733;53.254;10.430;2023-07-28T08:19:35;1.93;;;1.67;;
37895;SDS011;23733;53.254;10.430;2023-07-28T08:22:02;1.60;;;1.50;;
37895;SDS011;23733;53.254;10.430;2023-07-28T08:24:31;2.13;;;1.60;;
37895;SDS011;23733;53.254;10.430;2023-07-28T08:26:57;1.40;;;1.17;;
37895;SDS011;23733;53.254;10.430;2023-07-28T08:29:23;1.60;;;1.50;;
37895;SDS011;23733;53.254;10.430;2023-07-28T08:31:49;5.13;;;1.73;;
37895;SDS011;23733;53.254;10.430;2023-07-28T08:34:16;2.23;;;1.87;;
37895;SDS011;23733;53.254;10.430;2023-07-28T08:36:43;1.80;;;1.67;;
37895;SDS011;23733;53.254;10.430;2023-07-28T08:39:09;1.67;;;1.47;;
37895;SDS011;23733;53.254;10.430;2023-07-28T08:41:35;2.03;;;1.50;;
37895;SDS011;23733;53.254;10.430;2023-07-28T08:44:02;2.27;;;1.63;;
37895;SDS011;23733;53.254;10.430;2023-07-28T08:46:29;2.57;;;1.53;;
37895;SDS011;23733;53.254;10.430;2023-07-28T08:48:56;1.53;;;1.43;;
37895;SDS011;23733;53.254;10.430;2023-07-28T08:51:22;1.60;;;1.50;;
37895;SDS011;23733;53.254;10.430;2023-07-28T08:53:49;6.63;;;1.70;;
37895;SDS011;23733;53.254;10.430;2023-07-28T08:56:15;1.93;;;1.70;;
37895;SDS011;23733;53.254;10.430;2023-07-28T08:58:41;2.40;;;1.70;;
37895;SDS011;23733;53.254;10.430;2023-07-28T09:01:07;1.70;;;1.60;;
37895;SDS011;23733;53.254;10.430;2023-07-28T09:03:33;2.47;;;1.83;;
37895;SDS011;23733;53.254;10.430;2023-07-28T09:06:06;1.80;;;1.70;;
37895;SDS011;23733;53.254;10.430;2023-07-28T09:08:35;2.20;;;1.70;;
37895;SDS011;23733;53.254;10.430;2023-07-28T09:11:03;1.93;;;1.80;;
37895;SDS011;23733;53.254;10.430;2023-07-28T09:13:40;1.97;;;1.77;;
37895;SDS011;23733;53.254;10.430;2023-07-28T09:16:17;2.30;;;1.53;;
37895;SDS011;23733;53.254;10.430;2023-07-28T09:18:43;2.00;;;1.70;;
37895;SDS011;23733;53.254;10.430;2023-07-28T09:21:15;2.50;;;2.07;;
37895;SDS011;23733;53.254;10.430;2023-07-28T09:23:43;2.60;;;1.87;;
37895;SDS011;23733;53.254;10.430;2023-07-28T09:26:10;2.07;;;1.87;;
37895;SDS011;23733;53.254;10.430;2023-07-28T09:28:36;2.93;;;1.70;;
37895;SDS011;23733;53.254;10.430;2023-07-28T09:31:04;1.80;;;1.70;;
37895;SDS011;23733;53.254;10.430;2023-07-28T09:33:32;2.27;;;2.00;;
37895;SDS011;23733;53.254;10.430;2023-07-28T09:36:09;3.13;;;1.70;;
37895;SDS011;23733;53.254;10.430;2023-07-28T09:38:41;1.63;;;1.53;;
37895;SDS011;23733;53.254;10.430;2023-07-28T09:41:08;1.83;;;1.53;;
37895;SDS011;23733;53.254;10.430;2023-07-28T09:43:36;2.30;;;1.63;;
37895;SDS011;23733;53.254;10.430;2023-07-28T09:46:05;1.80;;;1.70;;
37895;SDS011;23733;53.254;10.430;2023-07-28T09:48:34;1.83;;;1.63;;
37895;SDS011;23733;53.254;10.430;2023-07-28T09:51:02;1.43;;;1.33;;
37895;SDS011;23733;53.254;10.430;2023-07-28T09:53:39;1.40;;;1.30;;
37895;SDS011;23733;53.254;10.430;2023-07-28T09:56:09;1.50;;;1.40;;
37895;SDS011;23733;53.254;10.430;2023-07-28T09:58:37;1.80;;;1.40;;
37895;SDS011;23733;53.254;10.430;2023-07-28T10:01:07;1.30;;;1.20;;
37895;SDS011;23733;53.254;10.430;2023-07-28T10:03:35;1.40;;;1.30;;
37895;SDS011;23733;53.254;10.430;2023-07-28T10:06:02;1.50;;;1.40;;
37895;SDS011;23733;53.254;10.430;2023-07-28T10:08:29;1.50;;;1.40;;
37895;SDS011;23733;53.254;10.430;2023-07-28T10:10:55;1.30;;;1.20;;
37895;SDS011;23733;53.254;10.430;2023-07-28T10:13:22;1.53;;;1.30;;
37895;SDS011;23733;53.254;10.430;2023-07-28T10:15:48;1.60;;;1.50;;
37895;SDS011;23733;53.254;10.430;2023-07-28T10:18:15;1.57;;;1.33;;
37895;SDS011;23733;53.254;10.430;2023-07-28T10:20:44;1.30;;;1.20;;
37895;SDS011;23733;53.254;10.430;2023-07-28T10:23:15;1.50;;;1.40;;
37895;SDS011;23733;53.254;10.430;2023-07-28T10:25:55;1.57;;;1.47;;
37895;SDS011;23733;53.254;10.430;2023-07-28T10:28:36;1.90;;;1.20;;
37895;SDS011;23733;53.254;10.430;2023-07-28T10:31:07;1.70;;;1.40;;
37895;SDS011;23733;53.254;10.430;2023-07-28T10:33:37;1.50;;;1.40;;
37895;SDS011;23733;53.254;10.430;2023-07-28T10:36:17;1.50;;;1.40;;
37895;SDS011;23733;53.254;10.430;2023-07-28T10:39:01;1.40;;;1.20;;
37895;SDS011;23733;53.254;10.430;2023-07-28T10:41:30;1.90;;;1.57;;
37895;SDS011;23733;53.254;10.430;2023-07-28T10:44:00;1.57;;;1.30;;
37895;SDS011;23733;53.254;10.430;2023-07-28T10:46:27;1.40;;;1.30;;
37895;SDS011;23733;53.254;10.430;2023-07-28T10:48:54;1.63;;;1.53;;
37895;SDS011;23733;53.254;10.430;2023-07-28T10:51:23;2.07;;;1.50;;
37895;SDS011;23733;53.254;10.430;2023-07-28T10:53:51;2.47;;;1.60;;
37895;SDS011;23733;53.254;10.430;2023-07-28T10:56:20;1.47;;;1.30;;
37895;SDS011;23733;53.254;10.430;2023-07-28T10:58:55;1.57;;;1.40;;
37895;SDS011;23733;53.254;10.430;2023-07-28T11:01:32;1.70;;;1.57;;
37895;SDS011;23733;53.254;10.430;2023-07-28T11:06:54;1.60;;;1.50;;
37895;SDS011;23733;53.254;10.430;2023-07-28T11:09:22;1.67;;;1.57;;
37895;SDS011;23733;53.254;10.430;2023-07-28T11:11:51;1.80;;;1.60;;
37895;SDS011;23733;53.254;10.430;2023-07-28T11:14:17;1.73;;;1.60;;
37895;SDS011;23733;53.254;10.430;2023-07-28T11:16:44;2.03;;;1.37;;
37895;SDS011;23733;53.254;10.430;2023-07-28T11:19:13;1.70;;;1.60;;
37895;SDS011;23733;53.254;10.430;2023-07-28T11:21:39;1.50;;;1.30;;
37895;SDS011;23733;53.254;10.430;2023-07-28T11:24:06;3.33;;;1.47;;
37895;SDS011;23733;53.254;10.430;2023-07-28T11:26:36;1.60;;;1.50;;
37895;SDS011;23733;53.254;10.430;2023-07-28T11:29:03;2.27;;;1.67;;
37895;SDS011;23733;53.254;10.430;2023-07-28T11:31:30;1.43;;;1.33;;
37895;SDS011;23733;53.254;10.430;2023-07-28T11:33:56;1.63;;;1.50;;
37895;SDS011;23733;53.254;10.430;2023-07-28T11:36:23;1.60;;;1.50;;
37895;SDS011;23733;53.254;10.430;2023-07-28T11:38:53;1.87;;;1.50;;
37895;SDS011;23733;53.254;10.430;2023-07-28T11:41:20;1.50;;;1.40;;
37895;SDS011;23733;53.254;10.430;2023-07-28T11:43:48;3.87;;;1.40;;
37895;SDS011;23733;53.254;10.430;2023-07-28T11:49:18;1.60;;;1.40;;
37895;SDS011;23733;53.254;10.430;2023-07-28T11:51:50;1.93;;;1.50;;
37895;SDS011;23733;53.254;10.430;2023-07-28T11:54:23;2.70;;;1.60;;
37895;SDS011;23733;53.254;10.430;2023-07-28T11:56:51;2.10;;;1.70;;
37895;SDS011;23733;53.254;10.430;2023-07-28T11:59:22;2.07;;;1.80;;
37895;SDS011;23733;53.254;10.430;2023-07-28T12:01:58;1.97;;;1.70;;
37895;SDS011;23733;53.254;10.430;2023-07-28T12:04:26;1.57;;;1.40;;
37895;SDS011;23733;53.254;10.430;2023-07-28T12:09:47;2.13;;;1.93;;
37895;SDS011;23733;53.254;10.430;2023-07-28T12:12:15;3.63;;;2.10;;
37895;SDS011;23733;53.254;10.430;2023-07-28T12:14:41;1.80;;;1.70;;
37895;SDS011;23733;53.254;10.430;2023-07-28T12:17:14;1.93;;;1.83;;
37895;SDS011;23733;53.254;10.430;2023-07-28T12:19:41;2.87;;;2.00;;
37895;SDS011;23733;53.254;10.430;2023-07-28T12:22:08;2.20;;;2.00;;
37895;SDS011;23733;53.254;10.430;2023-07-28T12:24:34;2.73;;;1.73;;
37895;SDS011;23733;53.254;10.430;2023-07-28T12:27:00;1.73;;;1.63;;
37895;SDS011;23733;53.254;10.430;2023-07-28T12:29:26;1.90;;;1.80;;
37895;SDS011;23733;53.254;10.430;2023-07-28T12:31:52;2.13;;;1.90;;
37895;SDS011;23733;53.254;10.430;2023-07-28T12:34:18;2.23;;;2.03;;
37895;SDS011;23733;53.254;10.430;2023-07-28T12:36:44;2.00;;;1.80;;
37895;SDS011;23733;53.254;10.430;2023-07-28T12:39:11;2.10;;;1.90;;
37895;SDS011;23733;53.254;10.430;2023-07-28T12:41:37;2.20;;;1.80;;
37895;SDS011;23733;53.254;10.430;2023-07-28T12:44:04;2.83;;;1.90;;
37895;SDS011;23733;53.254;10.430;2023-07-28T12:46:30;2.50;;;1.77;;
37895;SDS011;23733;53.254;10.430;2023-07-28T12:48:57;2.20;;;2.00;;
37895;SDS011;23733;53.254;10.430;2023-07-28T12:51:24;2.00;;;1.80;;
37895;SDS011;23733;53.254;10.430;2023-07-28T12:53:50;2.50;;;1.90;;
37895;SDS011;23733;53.254;10.430;2023-07-28T12:56:16;1.97;;;1.83;;
37895;SDS011;23733;53.254;10.430;2023-07-28T12:58:42;2.13;;;1.93;;
37895;SDS011;23733;53.254;10.430;2023-07-28T13:01:08;2.17;;;1.90;;
37895;SDS011;23733;53.254;10.430;2023-07-28T13:03:36;4.20;;;1.83;;
37895;SDS011;23733;53.254;10.430;2023-07-28T13:06:03;2.67;;;2.03;;
37895;SDS011;23733;53.254;10.430;2023-07-28T13:08:29;2.00;;;1.80;;
37895;SDS011;23733;53.254;10.430;2023-07-28T13:10:55;2.63;;;2.07;;
37895;SDS011;23733;53.254;10.430;2023-07-28T13:13:21;2.03;;;1.87;;
37895;SDS011;23733;53.254;10.430;2023-07-28T13:15:47;1.97;;;1.70;;
37895;SDS011;23733;53.254;10.430;2023-07-28T13:18:13;2.93;;;2.00;;
37895;SDS011;23733;53.254;10.430;2023-07-28T13:20:39;2.17;;;1.93;;
37895;SDS011;23733;53.254;10.430;2023-07-28T13:23:05;1.93;;;1.80;;
37895;SDS011;23733;53.254;10.430;2023-07-28T13:25:31;1.90;;;1.70;;
37895;SDS011;23733;53.254;10.430;2023-07-28T13:27:57;3.13;;;1.97;;
37895;SDS011;23733;53.254;10.430;2023-07-28T13:30:23;2.77;;;1.77;;
37895;SDS011;23733;53.254;10.430;2023-07-28T13:32:49;2.13;;;1.73;;
37895;SDS011;23733;53.254;10.430;2023-07-28T13:35:15;1.70;;;1.60;;
37895;SDS011;23733;53.254;10.430;2023-07-28T13:37:41;1.50;;;1.40;;
37895;SDS011;23733;53.254;10.430;2023-07-28T13:40:08;1.83;;;1.60;;
37895;SDS011;23733;53.254;10.430;2023-07-28T13:42:35;1.67;;;1.50;;
37895;SDS011;23733;53.254;10.430;2023-07-28T13:45:01;1.80;;;1.53;;
37895;SDS011;23733;53.254;10.430;2023-07-28T13:47:27;1.70;;;1.50;;
37895;SDS011;23733;53.254;10.430;2023-07-28T13:49:53;1.50;;;1.40;;
37895;SDS011;23733;53.254;10.430;2023-07-28T13:52:21;1.50;;;1.40;;
37895;SDS011;23733;53.254;10.430;2023-07-28T13:54:47;1.33;;;1.23;;
37895;SDS011;23733;53.254;10.430;2023-07-28T13:57:13;1.40;;;1.10;;
37895;SDS011;23733;53.254;10.430;2023-07-28T13:59:40;2.03;;;1.40;;
37895;SDS011;23733;53.254;10.430;2023-07-28T14:02:06;1.50;;;1.20;;
37895;SDS011;23733;53.254;10.430;2023-07-28T14:04:32;1.40;;;1.20;;
37895;SDS011;23733;53.254;10.430;2023-07-28T14:06:58;1.07;;;1.00;;
37895;SDS011;23733;53.254;10.430;2023-07-28T14:09:24;1.70;;;1.10;;
37895;SDS011;23733;53.254;10.430;2023-07-28T14:11:50;1.13;;;1.03;;
37895;SDS011;23733;53.254;10.430;2023-07-28T14:14:16;1.33;;;1.23;;
37895;SDS011;23733;53.254;10.430;2023-07-28T14:16:42;1.77;;;1.10;;
37895;SDS011;23733;53.254;10.430;2023-07-28T14:19:08;1.10;;;1.00;;
37895;SDS011;23733;53.254;10.430;2023-07-28T14:21:34;1.13;;;1.03;;
37895;SDS011;23733;53.254;10.430;2023-07-28T14:24:04;1.00;;;0.90;;
37895;SDS011;23733;53.254;10.430;2023-07-28T14:26:31;1.13;;;1.03;;
37895;SDS011;23733;53.254;10.430;2023-07-28T14:28:57;1.20;;;1.10;;
37895;SDS011;23733;53.254;10.430;2023-07-28T14:31:23;1.20;;;1.10;;
37895;SDS011;23733;53.254;10.430;2023-07-28T14:33:49;0.90;;;0.90;;
37895;SDS011;23733;53.254;10.430;2023-07-28T14:36:15;1.20;;;1.10;;
37895;SDS011;23733;53.254;10.430;2023-07-28T14:38:42;1.20;;;1.10;;
37895;SDS011;23733;53.254;10.430;2023-07-28T14:41:08;1.30;;;1.10;;
37895;SDS011;23733;53.254;10.430;2023-07-28T14:43:34;1.07;;;0.97;;
37895;SDS011;23733;53.254;10.430;2023-07-28T14:46:00;1.10;;;1.00;;